createdAt,value
2023-02-14T00:00:13.247Z,81.20
2023-02-14T00:02:42.359Z,81.10
2023-02-14T00:05:11.743Z,81.10
2023-02-14T00:07:40.933Z,81.00
2023-02-14T00:10:10.690Z,80.90
2023-02-14T00:12:39.801Z,80.90
2023-02-14T00:15:33.480Z,81.00
2023-02-14T00:18:03.908Z,81.10
2023-02-14T00:20:33.037Z,82.20
2023-02-14T00:23:02.189Z,81.50
2023-02-14T00:25:31.288Z,81.70
2023-02-14T00:28:00.328Z,81.90
2023-02-14T00:30:31.105Z,81.90
2023-02-14T00:33:00.636Z,82.00
2023-02-14T00:35:31.336Z,82.30
2023-02-14T00:38:00.440Z,82.40
2023-02-14T00:40:30.173Z,82.60
2023-02-14T00:42:59.523Z,82.70
2023-02-14T00:45:28.651Z,82.90
2023-02-14T00:47:57.863Z,83.00
2023-02-14T00:50:26.963Z,83.00
2023-02-14T00:52:57.467Z,83.20
2023-02-14T00:55:26.603Z,83.40
2023-02-14T00:57:55.742Z,83.50
2023-02-14T01:00:25.459Z,83.60
2023-02-14T01:02:57.824Z,83.80
2023-02-14T01:05:27.229Z,83.90
2023-02-14T01:07:57.722Z,84.00
2023-02-14T01:10:27.116Z,84.00
2023-02-14T01:12:56.405Z,84.10
2023-02-14T01:15:25.577Z,84.30
2023-02-14T01:17:54.966Z,84.50
2023-02-14T01:20:24.230Z,84.60
2023-02-14T01:22:54.758Z,84.70
2023-02-14T01:25:25.709Z,85.00
2023-02-14T01:27:54.926Z,85.00
2023-02-14T01:30:24.165Z,85.10
2023-02-14T01:32:53.669Z,85.20
2023-02-14T01:35:23.535Z,85.10
2023-02-14T01:37:53.350Z,85.20
2023-02-14T01:40:22.685Z,85.10
2023-02-14T01:42:53.234Z,85.10
2023-02-14T01:45:26.903Z,85.20
2023-02-14T01:47:58.797Z,85.30
2023-02-14T01:50:33.884Z,85.20
2023-02-14T01:53:05.573Z,85.30
2023-02-14T01:55:38.621Z,85.30
2023-02-14T01:58:13.106Z,85.30
2023-02-14T02:00:58.713Z,85.30
2023-02-14T02:03:32.185Z,85.30
2023-02-14T02:06:09.875Z,85.30
2023-02-14T02:08:43.255Z,85.40
2023-02-14T02:11:12.349Z,85.40
2023-02-14T02:13:42.998Z,85.70
2023-02-14T02:16:17.735Z,85.90
2023-02-14T02:18:59.568Z,85.80
2023-02-14T02:22:05.724Z,85.60
2023-02-14T02:24:40.306Z,85.70
2023-02-14T02:27:33.220Z,85.70
2023-02-14T02:30:37.822Z,85.80
2023-02-14T02:33:50.097Z,85.90
2023-02-14T02:36:49.309Z,85.80
2023-02-14T02:39:31.251Z,85.70
2023-02-14T02:42:08.079Z,85.60
2023-02-14T02:44:46.753Z,85.70
2023-02-14T02:47:22.584Z,85.70
2023-02-14T02:50:17.648Z,85.60
2023-02-14T02:53:06.416Z,85.50
2023-02-14T02:56:16.552Z,85.40
2023-02-14T02:58:53.129Z,85.40
2023-02-14T03:01:28.273Z,85.30
2023-02-14T03:04:19.419Z,85.30
2023-02-14T03:06:49.436Z,85.30
2023-02-14T03:09:54.083Z,85.10
2023-02-14T03:13:03.859Z,85.10
2023-02-14T03:15:44.522Z,85.10
2023-02-14T03:18:46.351Z,85.10
2023-02-14T03:21:23.000Z,85.10
2023-02-14T03:23:57.976Z,85.10
2023-02-14T03:26:36.323Z,85.10
2023-02-14T03:29:14.171Z,85.10
2023-02-14T03:31:52.058Z,85.30
2023-02-14T03:34:29.633Z,85.40
2023-02-14T03:37:04.566Z,85.70
2023-02-14T03:39:40.998Z,85.90
2023-02-14T03:42:17.904Z,86.10
2023-02-14T03:44:49.820Z,86.30
2023-02-14T03:47:22.124Z,86.40
2023-02-14T03:49:58.063Z,86.50
2023-02-14T03:52:28.811Z,86.60
2023-02-14T03:55:00.758Z,86.70
2023-02-14T03:57:36.523Z,86.70
2023-02-14T04:00:07.123Z,86.90
2023-02-14T04:02:46.682Z,86.70
2023-02-14T04:05:19.802Z,86.90
2023-02-14T04:07:51.631Z,87.00
2023-02-14T04:10:21.885Z,87.00
2023-02-14T04:12:52.663Z,87.00
2023-02-14T04:15:21.930Z,87.00
2023-02-14T04:18:08.584Z,87.10
2023-02-14T04:20:38.259Z,87.20
2023-02-14T04:23:07.416Z,87.20
2023-02-14T04:25:36.504Z,87.30
2023-02-14T04:28:07.180Z,87.40
2023-02-14T04:30:36.275Z,87.50
2023-02-14T04:33:05.940Z,87.40
2023-02-14T04:35:35.397Z,87.40
2023-02-14T04:38:05.852Z,87.40
2023-02-14T04:40:34.938Z,87.50
2023-02-14T04:43:04.704Z,87.50
2023-02-14T04:45:35.511Z,87.40
2023-02-14T04:48:04.784Z,87.50
2023-02-14T04:50:33.878Z,87.70
2023-02-14T04:53:03.071Z,87.70
2023-02-14T04:55:32.492Z,87.70
2023-02-14T04:58:01.530Z,87.70
2023-02-14T05:00:30.676Z,87.80
2023-02-14T05:03:01.243Z,88.00
2023-02-14T05:05:30.365Z,88.10
2023-02-14T05:07:59.400Z,88.10
2023-02-14T05:10:29.336Z,88.20
2023-02-14T05:12:58.399Z,88.30
2023-02-14T05:15:27.440Z,88.30
2023-02-14T05:17:59.902Z,88.40
2023-02-14T05:20:30.756Z,88.50
2023-02-14T05:23:03.324Z,88.70
2023-02-14T05:25:32.719Z,88.80
2023-02-14T05:28:01.835Z,88.90
2023-02-14T05:30:31.096Z,89.10
2023-02-14T05:33:00.435Z,89.20
2023-02-14T05:35:31.055Z,89.30
2023-02-14T05:38:00.312Z,89.30
2023-02-14T05:40:29.908Z,89.30
2023-02-14T05:42:59.142Z,89.40
2023-02-14T05:45:28.235Z,89.40
2023-02-14T05:47:57.640Z,89.50
2023-02-14T05:50:26.779Z,89.50
2023-02-14T05:52:58.362Z,89.60
2023-02-14T05:55:27.494Z,89.70
2023-02-14T05:57:56.661Z,89.80
2023-02-14T06:00:26.296Z,89.80
2023-02-14T06:02:55.398Z,90.00
2023-02-14T06:05:24.521Z,90.00
2023-02-14T06:07:53.777Z,90.00
2023-02-14T06:10:26.696Z,90.10
2023-02-14T06:12:56.464Z,90.10
2023-02-14T06:15:25.926Z,90.10
2023-02-14T06:17:56.335Z,90.20
2023-02-14T06:20:26.029Z,90.30
2023-02-14T06:22:55.895Z,90.30
2023-02-14T06:25:26.669Z,90.30
2023-02-14T06:27:58.201Z,90.50
2023-02-14T06:30:28.045Z,90.50
2023-02-14T06:32:57.545Z,90.60
2023-02-14T06:35:26.673Z,90.60
2023-02-14T06:37:55.827Z,90.60
2023-02-14T06:40:26.347Z,90.70
2023-02-14T06:42:55.523Z,90.70
2023-02-14T06:45:24.573Z,90.80
2023-02-14T06:47:53.667Z,90.80
2023-02-14T06:50:22.928Z,90.90
2023-02-14T06:52:52.050Z,90.90
2023-02-14T06:55:21.243Z,91.00
2023-02-14T06:57:51.834Z,91.00
2023-02-14T07:00:22.244Z,91.00
2023-02-14T07:02:51.741Z,91.00
2023-02-14T07:05:22.293Z,91.10
2023-02-14T07:07:51.844Z,91.10
2023-02-14T07:10:21.637Z,91.10
2023-02-14T07:12:52.882Z,91.20
2023-02-14T07:15:21.863Z,91.20
2023-02-14T07:17:50.975Z,91.30
2023-02-14T07:20:20.639Z,91.10
2023-02-14T07:22:49.853Z,91.50
2023-02-14T07:25:19.294Z,91.20
2023-02-14T07:27:49.014Z,91.20
2023-02-14T07:30:20.033Z,91.30
2023-02-14T07:32:49.253Z,91.30
2023-02-14T07:35:18.427Z,91.40
2023-02-14T07:37:47.706Z,91.40
2023-02-14T07:40:17.078Z,91.50
2023-02-14T07:42:47.076Z,91.40
2023-02-14T07:45:21.771Z,91.50
2023-02-14T07:47:54.859Z,91.50
2023-02-14T07:50:24.808Z,91.50
2023-02-14T07:52:55.195Z,91.50
2023-02-14T07:55:25.228Z,91.50
2023-02-14T07:57:54.316Z,91.50
2023-02-14T08:00:24.123Z,91.50
2023-02-14T08:02:56.184Z,91.50
2023-02-14T08:05:25.424Z,91.60
2023-02-14T08:07:54.567Z,91.60
2023-02-14T08:10:23.684Z,91.70
2023-02-14T08:13:02.104Z,91.70
2023-02-14T08:15:51.023Z,91.70
2023-02-14T08:18:23.335Z,91.70
2023-02-14T08:20:53.039Z,91.80
2023-02-14T08:23:22.539Z,91.80
2023-02-14T08:25:53.204Z,91.80
2023-02-14T08:28:22.800Z,91.90
2023-02-14T08:30:53.406Z,91.90
2023-02-14T08:33:24.706Z,91.90
2023-02-14T08:35:54.565Z,92.00
2023-02-14T08:38:24.191Z,92.00
2023-02-14T08:40:53.736Z,92.00
2023-02-14T08:43:23.393Z,92.10
2023-02-14T08:45:54.586Z,92.10
2023-02-14T08:48:27.019Z,92.20
2023-02-14T08:50:56.361Z,92.20
2023-02-14T08:53:26.346Z,92.20
2023-02-14T08:55:55.978Z,92.20
2023-02-14T08:58:25.572Z,92.20
2023-02-14T09:00:55.863Z,92.30
2023-02-14T09:03:26.670Z,92.40
2023-02-14T09:05:56.593Z,92.40
2023-02-14T09:08:25.833Z,92.40
2023-02-14T09:10:55.005Z,92.50
2023-02-14T09:13:24.734Z,92.50
2023-02-14T09:15:53.853Z,92.50
2023-02-14T09:18:23.182Z,92.60
2023-02-14T09:20:55.018Z,92.60
2023-02-14T09:23:24.318Z,92.60
2023-02-14T09:25:53.651Z,92.70
2023-02-14T09:28:24.796Z,92.60
2023-02-14T09:30:54.649Z,92.70
2023-02-14T09:33:24.460Z,92.70
2023-02-14T09:35:55.663Z,92.70
2023-02-14T09:38:24.928Z,92.70
2023-02-14T09:40:54.426Z,92.70
2023-02-14T09:43:32.428Z,92.80
2023-02-14T09:46:03.708Z,92.80
2023-02-14T09:48:34.793Z,92.80
2023-02-14T09:51:10.050Z,92.90
2023-02-14T09:53:45.504Z,92.70
2023-02-14T09:56:22.227Z,92.70
2023-02-14T09:58:56.104Z,92.70
2023-02-14T10:01:29.785Z,92.70
2023-02-14T10:04:22.699Z,92.70
2023-02-14T10:06:59.919Z,92.80
2023-02-14T10:09:51.352Z,92.80
2023-02-14T10:12:25.447Z,92.80
2023-02-14T10:15:00.304Z,92.80
2023-02-14T10:17:40.558Z,92.70
2023-02-14T10:20:22.070Z,92.80
2023-02-14T10:23:01.784Z,92.80
2023-02-14T10:25:38.384Z,92.80
2023-02-14T10:28:12.632Z,92.80
2023-02-14T10:30:52.894Z,92.80
2023-02-14T10:33:23.729Z,92.70
2023-02-14T10:35:58.515Z,92.60
2023-02-14T10:38:40.912Z,92.60
2023-02-14T10:41:25.957Z,92.70
2023-02-14T10:44:01.498Z,92.70
2023-02-14T10:46:40.954Z,92.70
2023-02-14T10:49:28.784Z,92.60
2023-02-14T10:52:04.351Z,92.60
2023-02-14T10:54:40.059Z,92.50
2023-02-14T10:57:16.027Z,92.50
2023-02-14T10:59:53.434Z,92.40
2023-02-14T11:02:27.072Z,92.50
2023-02-14T11:05:00.341Z,92.40
2023-02-14T11:07:29.865Z,92.40
2023-02-14T11:10:03.490Z,92.40
2023-02-14T11:12:39.113Z,92.50
2023-02-14T11:15:24.367Z,92.50
2023-02-14T11:18:11.381Z,92.40
2023-02-14T11:20:40.751Z,92.40
2023-02-14T11:23:21.183Z,92.40
2023-02-14T11:25:56.788Z,92.40
2023-02-14T11:28:25.975Z,92.50
2023-02-14T11:30:55.806Z,92.50
2023-02-14T11:33:38.561Z,92.60
2023-02-14T11:36:13.389Z,92.50
2023-02-14T11:38:43.046Z,92.50
2023-02-14T11:41:26.355Z,92.50
2023-02-14T11:44:15.687Z,92.50
2023-02-14T11:46:53.128Z,92.50
2023-02-14T11:49:29.673Z,92.40
2023-02-14T11:52:01.003Z,92.40
2023-02-14T11:54:31.888Z,92.30
2023-02-14T11:57:10.570Z,92.30
2023-02-14T11:59:43.643Z,92.20
2023-02-14T12:02:24.491Z,92.10
2023-02-14T12:04:57.323Z,91.90
2023-02-14T12:07:32.974Z,91.80
2023-02-14T12:10:27.537Z,91.70
2023-02-14T12:13:01.886Z,91.60
2023-02-14T12:15:38.142Z,91.40
2023-02-14T12:18:45.221Z,91.20
2023-02-14T12:21:35.072Z,91.20
2023-02-14T12:24:14.055Z,91.00
2023-02-14T12:26:48.109Z,90.80
2023-02-14T12:29:26.364Z,90.70
2023-02-14T12:32:00.397Z,90.60
2023-02-14T12:34:29.952Z,90.40
2023-02-14T12:37:21.137Z,90.20
2023-02-14T12:40:02.679Z,90.00
2023-02-14T12:42:54.717Z,90.00
2023-02-14T12:45:34.702Z,89.50
2023-02-14T12:48:17.532Z,89.10
2023-02-14T12:50:51.348Z,88.80
2023-02-14T12:53:51.007Z,88.60
2023-02-14T12:56:29.734Z,88.40
2023-02-14T12:59:10.834Z,88.20
2023-02-14T13:02:18.865Z,88.10
2023-02-14T13:04:58.629Z,88.00
2023-02-14T13:07:48.721Z,88.00
2023-02-14T13:10:31.324Z,87.90
2023-02-14T13:13:07.902Z,87.90
2023-02-14T13:15:48.285Z,87.70
2023-02-14T13:18:25.892Z,87.50
2023-02-14T13:20:56.953Z,87.40
2023-02-14T13:23:31.657Z,87.30
2023-02-14T13:26:05.529Z,87.30
2023-02-14T13:28:37.569Z,87.10
2023-02-14T13:31:06.940Z,87.90
2023-02-14T13:33:40.546Z,86.90
2023-02-14T13:36:12.388Z,86.70
2023-02-14T13:38:46.766Z,86.60
2023-02-14T13:41:17.641Z,86.30
2023-02-14T13:43:48.513Z,86.20
2023-02-14T13:46:21.185Z,85.90
2023-02-14T13:49:18.883Z,85.80
2023-02-14T13:51:49.611Z,85.50
2023-02-14T13:54:29.454Z,85.30
2023-02-14T13:56:59.799Z,85.10
2023-02-14T13:59:31.737Z,85.00
2023-02-14T14:02:32.941Z,84.70
2023-02-14T14:05:42.981Z,84.40
2023-02-14T14:08:33.906Z,84.30
2023-02-14T14:11:05.153Z,84.20
2023-02-14T14:14:01.708Z,84.20
2023-02-14T14:16:33.467Z,84.00
2023-02-14T14:19:05.781Z,84.00
2023-02-14T14:21:39.439Z,84.00
2023-02-14T14:24:23.545Z,83.80
2023-02-14T14:26:59.161Z,83.80
2023-02-14T14:29:31.841Z,83.70
2023-02-14T14:32:01.217Z,83.60
2023-02-14T14:34:30.537Z,83.20
2023-02-14T14:37:06.076Z,83.10
2023-02-14T14:39:39.953Z,82.90
2023-02-14T14:42:13.900Z,82.90
2023-02-14T14:44:49.812Z,82.70
2023-02-14T14:47:24.475Z,82.50
2023-02-14T14:49:56.012Z,82.40
2023-02-14T14:52:33.196Z,82.20
2023-02-14T14:55:04.357Z,81.90
2023-02-14T14:57:33.597Z,81.70
2023-02-14T15:00:27.272Z,81.50
2023-02-14T15:03:02.077Z,81.50
2023-02-14T15:05:34.013Z,81.50
2023-02-14T15:08:23.204Z,81.50
2023-02-14T15:10:55.876Z,81.40
2023-02-14T15:13:51.027Z,81.50
2023-02-14T15:16:23.351Z,81.50
2023-02-14T15:18:55.628Z,81.50
2023-02-14T15:21:25.015Z,81.50
2023-02-14T15:23:56.073Z,81.50
2023-02-14T15:26:29.687Z,81.50
2023-02-14T15:29:02.424Z,81.50
2023-02-14T15:31:34.647Z,81.40
2023-02-14T15:34:05.122Z,81.40
2023-02-14T15:36:36.128Z,81.20
2023-02-14T15:39:09.635Z,81.20
2023-02-14T15:41:44.841Z,81.00
2023-02-14T15:44:21.149Z,80.80
2023-02-14T15:46:55.349Z,80.60
2023-02-14T15:49:31.255Z,80.60
2023-02-14T15:52:03.865Z,80.60
2023-02-14T15:54:39.066Z,80.40
2023-02-14T15:57:17.775Z,80.30
2023-02-14T15:59:47.425Z,80.20
2023-02-14T16:02:28.277Z,80.10
2023-02-14T16:05:05.361Z,80.00
2023-02-14T16:07:34.495Z,79.90
2023-02-14T16:10:24.072Z,79.80
2023-02-14T16:12:59.313Z,79.50
2023-02-14T16:15:30.494Z,79.50
2023-02-14T16:17:59.936Z,79.50
2023-02-14T16:20:47.060Z,79.50
2023-02-14T16:23:25.557Z,79.50
2023-02-14T16:25:57.498Z,79.50
2023-02-14T16:28:31.088Z,79.60
2023-02-14T16:31:02.921Z,79.50
2023-02-14T16:33:35.230Z,79.70
2023-02-14T16:36:09.408Z,79.70
2023-02-14T16:38:43.870Z,79.80
2023-02-14T16:41:22.315Z,79.80
2023-02-14T16:43:51.875Z,79.80
2023-02-14T16:46:22.971Z,79.90
2023-02-14T16:48:52.980Z,80.10
2023-02-14T16:51:24.517Z,80.20
2023-02-14T16:53:54.925Z,80.40
2023-02-14T16:56:29.372Z,80.50
2023-02-14T16:58:58.857Z,80.50
2023-02-14T17:01:27.977Z,80.70
2023-02-14T17:03:57.105Z,80.90
2023-02-14T17:06:28.654Z,81.00
2023-02-14T17:08:59.785Z,81.10
2023-02-14T17:11:33.619Z,81.20
2023-02-14T17:14:02.717Z,81.30
2023-02-14T17:16:32.830Z,81.30
2023-02-14T17:19:04.170Z,81.30
2023-02-14T17:21:34.421Z,81.40
2023-02-14T17:24:03.790Z,81.40
2023-02-14T17:26:34.178Z,81.40
2023-02-14T17:29:03.322Z,81.50
2023-02-14T17:31:32.717Z,81.60
2023-02-14T17:34:01.928Z,81.70
2023-02-14T17:36:32.621Z,81.80
2023-02-14T17:39:03.371Z,81.90
2023-02-14T17:41:33.935Z,81.90
2023-02-14T17:44:03.048Z,81.90
2023-02-14T17:46:32.932Z,81.90
2023-02-14T17:49:02.726Z,81.90
2023-02-14T17:51:31.733Z,81.90
2023-02-14T17:54:00.998Z,81.90
2023-02-14T17:56:30.220Z,81.90
2023-02-14T17:59:00.999Z,81.80
2023-02-14T18:01:34.530Z,81.80
2023-02-14T18:04:05.730Z,81.80
2023-02-14T18:06:34.885Z,81.70
2023-02-14T18:09:06.869Z,81.70
2023-02-14T18:11:35.977Z,81.80
2023-02-14T18:14:06.386Z,81.80
2023-02-14T18:16:38.074Z,81.90
2023-02-14T18:19:10.107Z,81.90
2023-02-14T18:21:40.288Z,81.80
2023-02-14T18:24:10.407Z,81.70
2023-02-14T18:26:41.106Z,81.70
2023-02-14T18:29:12.771Z,81.70
2023-02-14T18:31:44.202Z,81.70
2023-02-14T18:34:13.525Z,81.60
2023-02-14T18:36:42.979Z,81.60
2023-02-14T18:39:12.348Z,81.60
2023-02-14T18:41:41.627Z,81.70
2023-02-14T18:44:13.711Z,81.70
2023-02-14T18:46:42.827Z,81.70
2023-02-14T18:49:13.698Z,81.70
2023-02-14T18:51:43.749Z,81.70
2023-02-14T18:54:12.772Z,81.70
2023-02-14T18:56:41.836Z,81.60
2023-02-14T18:59:19.073Z,81.70
2023-02-14T19:01:49.244Z,81.60
2023-02-14T19:04:18.419Z,81.60
2023-02-14T19:06:47.500Z,81.50
2023-02-14T19:09:18.738Z,81.40
2023-02-14T19:11:47.894Z,81.20
2023-02-14T19:14:19.790Z,81.30
2023-02-14T19:16:51.160Z,81.00
2023-02-14T19:19:20.688Z,80.90
2023-02-14T19:21:52.144Z,80.70
2023-02-14T19:24:26.354Z,80.60
2023-02-14T19:26:57.030Z,80.40
2023-02-14T19:29:28.650Z,80.30
2023-02-14T19:32:06.899Z,80.10
2023-02-14T19:34:38.494Z,79.90
2023-02-14T19:37:07.660Z,79.80
2023-02-14T19:39:36.691Z,79.60
2023-02-14T19:42:06.370Z,79.50
2023-02-14T19:44:36.874Z,79.30
2023-02-14T19:47:19.233Z,79.10
2023-02-14T19:50:25.623Z,79.10
2023-02-14T19:52:55.773Z,79.10
2023-02-14T19:55:25.054Z,79.10
2023-02-14T19:57:54.277Z,78.90
2023-02-14T20:00:25.396Z,79.00
2023-02-14T20:02:54.501Z,78.90
2023-02-14T20:05:37.001Z,78.90
2023-02-14T20:08:33.673Z,79.90
2023-02-14T20:11:09.752Z,78.90
2023-02-14T20:13:42.977Z,79.00
2023-02-14T20:16:30.197Z,79.10
2023-02-14T20:19:03.169Z,79.10
2023-02-14T20:21:34.639Z,79.20
2023-02-14T20:24:15.292Z,79.30
2023-02-14T20:26:44.481Z,79.30
2023-02-14T20:29:13.608Z,79.40
2023-02-14T20:31:46.021Z,79.40
2023-02-14T20:34:15.609Z,79.50
2023-02-14T20:36:45.534Z,79.50
2023-02-14T20:39:14.780Z,79.60
2023-02-14T20:41:49.870Z,79.60
2023-02-14T20:44:21.770Z,79.60
2023-02-14T20:46:54.204Z,79.60
2023-02-14T20:49:25.431Z,79.60
2023-02-14T20:51:58.255Z,79.90
2023-02-14T20:54:29.212Z,79.70
2023-02-14T20:56:59.049Z,79.60
2023-02-14T20:59:28.995Z,79.50
2023-02-14T21:02:00.421Z,79.50
2023-02-14T21:04:32.059Z,79.50
2023-02-14T21:07:05.139Z,79.60
2023-02-14T21:09:34.579Z,79.40
2023-02-14T21:12:03.995Z,79.40
2023-02-14T21:14:33.221Z,79.30
2023-02-14T21:17:05.553Z,79.30
2023-02-14T21:19:34.661Z,79.30
2023-02-14T21:22:04.348Z,79.20
2023-02-14T21:24:33.654Z,79.10
2023-02-14T21:27:02.728Z,79.00
2023-02-14T21:29:31.822Z,78.80
2023-02-14T21:32:03.400Z,78.60
2023-02-14T21:34:35.435Z,78.40
2023-02-14T21:37:04.603Z,78.40
2023-02-14T21:39:35.825Z,78.50
2023-02-14T21:42:04.953Z,78.50
2023-02-14T21:44:51.099Z,78.50
2023-02-14T21:47:20.317Z,78.40
2023-02-14T21:50:10.761Z,78.30
2023-02-14T21:52:39.921Z,78.30
2023-02-14T21:55:09.650Z,78.30
2023-02-14T21:57:38.975Z,78.30
2023-02-14T22:00:09.327Z,78.30
2023-02-14T22:02:41.593Z,78.20
2023-02-14T22:05:12.178Z,78.20
2023-02-14T22:07:41.297Z,78.30
2023-02-14T22:10:12.962Z,78.30
2023-02-14T22:12:42.071Z,78.30
2023-02-14T22:15:11.394Z,78.30
2023-02-14T22:17:40.655Z,78.10
2023-02-14T22:20:12.189Z,78.00
2023-02-14T22:22:41.250Z,78.00
2023-02-14T22:25:10.371Z,77.90
2023-02-14T22:27:40.671Z,78.60
2023-02-14T22:30:10.514Z,77.60
2023-02-14T22:32:43.328Z,77.40
2023-02-14T22:35:13.774Z,78.00
2023-02-14T22:37:43.222Z,77.00
2023-02-14T22:40:12.789Z,76.70
2023-02-14T22:42:41.958Z,76.60
2023-02-14T22:45:11.470Z,76.30
2023-02-14T22:47:44.932Z,76.10
2023-02-14T22:50:15.532Z,76.00
2023-02-14T22:52:44.857Z,75.80
2023-02-14T22:55:13.976Z,75.70
2023-02-14T22:57:43.174Z,75.60
2023-02-14T23:00:13.090Z,75.50
2023-02-14T23:02:42.416Z,75.40
2023-02-14T23:05:11.546Z,75.30
2023-02-14T23:07:44.945Z,75.20
2023-02-14T23:10:14.130Z,75.10
2023-02-14T23:13:00.943Z,75.10
2023-02-14T23:15:47.815Z,75.20
2023-02-14T23:18:34.370Z,75.20
2023-02-14T23:21:20.924Z,75.20
2023-02-14T23:23:51.495Z,75.10
2023-02-14T23:26:21.032Z,75.10
2023-02-14T23:28:50.211Z,75.00
2023-02-14T23:31:19.866Z,75.00
2023-02-14T23:33:52.172Z,75.00
2023-02-14T23:36:21.309Z,74.90
2023-02-14T23:38:51.968Z,74.90
2023-02-14T23:41:38.533Z,74.90
2023-02-14T23:44:08.244Z,75.00
2023-02-14T23:46:37.390Z,75.10
2023-02-14T23:49:06.877Z,75.30
2023-02-14T23:51:36.550Z,75.50
2023-02-14T23:54:07.434Z,75.70
2023-02-14T23:56:37.401Z,75.80
2023-02-14T23:59:07.227Z,76.00
